CYPD

Port Hawkesbury Airport

Port Hawkesbury, Nova Scotia, Canada
METAR CYPD 140000Z AUTO 29011G20KT 9SM OVC017 M05/M09 A3040 RMK SLP304
Observed Flight Rules
Dec-14 @ 00:00 UTC (57 minutes ago) Marginal Visual Flight Rules
Wind Visibility Clouds
290° at 11 knots
 Gusting to 20 knots
9 miles
  • Overcast at 1,700' AGL
Temperatures Readings
Current -5°C / 23°F
Dewpoint -9°C / 16°F
Humidity 74%
Altimeter 30.4" Hg
Pressure 1030.4 hPa
Elevation 114
METAR CYPD 140000Z AUTO 29011G20KT 9SM OVC017 M05/M09 A3040 RMK SLP304
Observed Flight Rules
Dec-14 @ 00:00 UTC
(57 minutes ago)
MVFR
Wind Visibility
290° at 11 knots
 Gusting to 20 knots
9 miles
Clouds
  • Overcast at 1,700' AGL
Temperature Dewpoint
-5°C / 23°F -9°C / 16°F
Humidity Altimeter Pressure
74% 30.4" Hg 1030.4 hPa